Time;durP1;ratioP1;P1;durP2;ratioP2;P2;SDS_P1;SDS_P2;PMS_P1;PMS_P2;Temp;Humidity;BMP_temperature;BMP_pressure;BME280_temperature;BME280_humidity;BME280_pressure;Samples;Min_cycle;Max_cycle;Signal;HPM_P1;HPM_P2
2024/03/31 00:00:20;;;;;;;9.43;2.70;;;;;;;13.38;47.36;96465.88;5049171;28;20216;-82
2024/03/31 00:02:46;;;;;;;9.00;3.80;;;;;;;13.32;47.85;96469.78;5049524;28;20680;-81
2024/03/31 00:05:13;;;;;;;9.67;2.93;;;;;;;13.25;47.92;96474.00;5054352;28;20277;-82
2024/03/31 00:07:39;;;;;;;10.33;2.97;;;;;;;13.26;47.89;96471.00;5054395;28;20205;-81
2024/03/31 00:10:06;;;;;;;5.13;1.97;;;;;;;13.10;48.27;96470.56;5053764;28;20201;-81
2024/03/31 00:12:32;;;;;;;8.87;2.93;;;;;;;13.07;48.41;96463.16;5053778;28;20206;-81
2024/03/31 00:14:59;;;;;;;4.23;2.03;;;;;;;12.86;48.74;96465.53;5054407;28;20190;-81
2024/03/31 00:17:26;;;;;;;12.33;3.27;;;;;;;12.92;48.75;96466.19;5039635;28;20203;-82
2024/03/31 00:19:53;;;;;;;5.33;2.73;;;;;;;12.95;48.94;96466.38;5054247;28;20210;-82
2024/03/31 00:22:19;;;;;;;3.70;1.90;;;;;;;12.90;48.82;96468.38;5054438;28;20224;-82
2024/03/31 00:24:46;;;;;;;6.23;2.83;;;;;;;12.86;48.87;96451.38;5053145;28;20612;-81
2024/03/31 00:27:12;;;;;;;7.23;3.00;;;;;;;12.68;49.99;96456.59;5054336;28;20201;-81
2024/03/31 00:29:39;;;;;;;3.03;2.30;;;;;;;12.84;49.79;96459.69;5054040;28;20221;-82
2024/03/31 00:32:05;;;;;;;10.00;2.80;;;;;;;12.86;49.67;96468.19;5053261;28;20209;-82
2024/03/31 00:34:33;;;;;;;5.73;2.93;;;;;;;12.69;50.10;96462.72;5053919;28;20205;-82
2024/03/31 00:36:59;;;;;;;10.20;3.00;;;;;;;12.53;50.52;96456.94;5054167;28;20201;-82
2024/03/31 00:39:26;;;;;;;5.27;2.63;;;;;;;12.60;50.67;96453.84;5053524;28;20199;-82
2024/03/31 00:41:52;;;;;;;12.23;3.27;;;;;;;12.58;50.87;96445.34;5053519;28;20197;-82
2024/03/31 00:44:19;;;;;;;8.27;2.53;;;;;;;12.62;51.10;96452.47;5053696;28;20814;-82
2024/03/31 00:46:44;;;;;;;6.10;2.00;;;;;;;12.78;50.55;96457.44;5053360;28;20205;-82
2024/03/31 00:49:11;;;;;;;12.23;2.60;;;;;;;12.48;50.88;96431.13;5053987;28;20198;-82
2024/03/31 00:51:38;;;;;;;15.80;3.23;;;;;;;12.67;50.78;96451.56;5053050;28;20206;-82
2024/03/31 00:54:05;;;;;;;9.40;2.43;;;;;;;12.47;50.54;96420.78;5053152;28;20190;-82
2024/03/31 00:56:31;;;;;;;9.63;2.67;;;;;;;12.59;50.91;96457.63;5041258;28;20215;-81
2024/03/31 00:58:58;;;;;;;9.50;3.27;;;;;;;12.65;50.65;96456.41;5033587;28;20318;-82
2024/03/31 01:01:24;;;;;;;12.20;3.00;;;;;;;12.72;50.34;96457.56;5035876;28;20216;-82
2024/03/31 01:03:51;;;;;;;5.47;2.13;;;;;;;12.57;50.54;96452.56;5052563;28;20249;-82
2024/03/31 01:06:19;;;;;;;5.73;2.67;;;;;;;12.21;51.61;96449.91;5053306;28;20202;-81
2024/03/31 01:08:49;;;;;;;7.90;3.37;;;;;;;12.47;51.44;96455.47;5053686;28;20229;-82
2024/03/31 01:11:17;;;;;;;8.63;2.70;;;;;;;12.08;52.51;96454.19;5052450;28;20194;-81
2024/03/31 01:13:44;;;;;;;5.83;2.40;;;;;;;11.98;52.63;96455.16;5052715;28;20192;-82
2024/03/31 01:16:11;;;;;;;12.33;2.70;;;;;;;12.02;52.52;96454.56;5052583;28;20271;-81
2024/03/31 01:18:38;;;;;;;13.13;2.43;;;;;;;11.85;53.41;96455.97;5052400;28;20206;-82
2024/03/31 01:21:04;;;;;;;7.80;2.90;;;;;;;11.41;53.32;96369.34;5052463;28;20198;-82
2024/03/31 01:23:37;;;;;;;7.23;2.77;;;;;;;12.11;52.88;96461.56;5052758;28;20240;-81
2024/03/31 01:26:05;;;;;;;10.13;3.40;;;;;;;12.06;53.55;96461.66;5052977;28;20198;-81
2024/03/31 01:28:33;;;;;;;12.73;3.30;;;;;;;12.13;53.50;96466.63;5052560;28;20200;-81
2024/03/31 01:30:59;;;;;;;9.40;3.73;;;;;;;12.15;53.70;96464.41;5035684;28;20194;-82
2024/03/31 01:33:26;;;;;;;9.43;3.10;;;;;;;12.09;53.94;96461.09;5044058;28;20197;-81
2024/03/31 01:35:52;;;;;;;7.70;3.70;;;;;;;12.18;53.81;96463.84;5052396;28;20201;-81
2024/03/31 01:38:19;;;;;;;11.30;4.07;;;;;;;12.13;54.06;96469.28;5052450;28;20198;-81
2024/03/31 01:40:45;;;;;;;8.07;3.30;;;;;;;12.05;54.16;96470.78;5051912;28;20624;-82
2024/03/31 01:43:13;;;;;;;9.73;3.27;;;;;;;11.94;54.60;96461.38;5052239;28;20202;-82
2024/03/31 01:45:39;;;;;;;8.77;3.60;;;;;;;12.00;54.90;96462.84;5042986;28;20190;-82
2024/03/31 01:48:06;;;;;;;12.27;3.47;;;;;;;11.70;54.98;96451.69;5051549;28;20209;-82
2024/03/31 01:50:32;;;;;;;19.80;5.43;;;;;;;11.65;55.66;96477.63;5052181;28;20197;-82
2024/03/31 01:52:58;;;;;;;14.40;3.87;;;;;;;11.66;55.77;96466.69;5052548;28;20217;-82
2024/03/31 01:55:24;;;;;;;5.77;2.53;;;;;;;11.63;55.98;96466.50;5033380;28;20202;-82
2024/03/31 01:57:51;;;;;;;11.30;3.53;;;;;;;11.71;55.72;96474.59;5044832;28;20259;-82
2024/03/31 02:00:20;;;;;;;10.37;2.77;;;;;;;11.84;55.45;96459.69;5052415;28;20225;-82
2024/03/31 02:02:47;;;;;;;7.73;2.63;;;;;;;11.83;54.75;96444.78;5052010;28;20198;-82
2024/03/31 02:05:13;;;;;;;9.10;3.53;;;;;;;11.51;55.36;96429.66;5051705;28;20229;-82
2024/03/31 02:07:40;;;;;;;15.83;3.77;;;;;;;11.54;56.00;96471.72;5037322;28;20208;-82
2024/03/31 02:10:06;;;;;;;8.57;3.63;;;;;;;11.19;55.97;96409.19;5031734;28;20202;-82
2024/03/31 02:12:33;;;;;;;13.10;3.60;;;;;;;11.61;56.31;96465.97;5043836;28;20687;-82
2024/03/31 02:14:59;;;;;;;7.57;2.73;;;;;;;11.66;55.62;96472.03;5051749;28;20256;-82
2024/03/31 02:17:27;;;;;;;12.40;4.53;;;;;;;11.37;56.03;96450.16;5051270;28;20198;-83
2024/03/31 02:19:53;;;;;;;9.13;3.77;;;;;;;11.38;55.88;96439.19;5051886;28;20206;-82
2024/03/31 02:22:20;;;;;;;12.80;3.93;;;;;;;11.49;56.16;96480.56;5051639;28;20201;-82
2024/03/31 02:24:46;;;;;;;9.97;3.50;;;;;;;11.65;55.84;96474.97;5051297;28;20221;-82
2024/03/31 02:27:13;;;;;;;7.80;2.70;;;;;;;11.66;55.76;96479.25;5048360;28;20209;-82
2024/03/31 02:29:39;;;;;;;9.40;3.20;;;;;;;11.81;55.66;96472.81;5036953;28;20198;-82
2024/03/31 02:32:07;;;;;;;11.97;2.77;;;;;;;11.77;55.43;96477.97;5051156;28;20225;-82
2024/03/31 02:34:34;;;;;;;9.10;3.23;;;;;;;11.84;54.71;96477.56;5051422;28;20215;-82
2024/03/31 02:37:01;;;;;;;6.83;2.43;;;;;;;11.68;55.54;96477.06;5051500;28;20229;-82
2024/03/31 02:39:27;;;;;;;6.30;2.70;;;;;;;11.56;56.00;96485.53;5051335;28;20573;-82
2024/03/31 02:41:54;;;;;;;10.07;2.63;;;;;;;11.55;56.22;96491.16;5051547;28;20202;-82
2024/03/31 02:44:19;;;;;;;6.80;2.83;;;;;;;11.26;56.69;96458.31;5050854;28;20225;-82
2024/03/31 02:46:46;;;;;;;4.80;2.90;;;;;;;11.51;56.61;96488.28;5050686;28;20201;-82
2024/03/31 02:49:12;;;;;;;6.60;3.80;;;;;;;11.42;56.75;96487.38;5051312;28;20209;-82
2024/03/31 02:51:40;;;;;;;6.33;3.70;;;;;;;11.59;56.14;96482.28;5051434;28;20194;-82
2024/03/31 02:54:06;;;;;;;10.40;3.97;;;;;;;11.34;56.01;96435.53;5051403;28;20198;-82
2024/03/31 02:56:33;;;;;;;9.37;3.00;;;;;;;11.70;55.64;96474.91;5041332;28;20553;-82
2024/03/31 02:58:59;;;;;;;11.10;3.03;;;;;;;11.56;55.77;96487.41;5031174;28;20569;-82
2024/03/31 03:01:26;;;;;;;8.03;2.70;;;;;;;11.52;56.05;96490.66;5036873;28;20575;-82
2024/03/31 03:03:52;;;;;;;12.50;3.53;;;;;;;11.46;56.30;96491.84;5050468;28;20268;-82
2024/03/31 03:06:20;;;;;;;6.57;3.83;;;;;;;11.50;56.30;96492.84;5050868;28;20201;-81
2024/03/31 03:08:49;;;;;;;10.70;2.73;;;;;;;11.74;55.38;96486.56;5051451;28;20197;-82
2024/03/31 03:11:15;;;;;;;11.77;2.70;;;;;;;11.56;56.01;96498.06;5049277;28;20211;-82
2024/03/31 03:13:43;;;;;;;6.60;2.70;;;;;;;11.69;56.14;96506.09;5050857;28;20198;-81
2024/03/31 03:16:10;;;;;;;5.93;3.23;;;;;;;11.47;56.38;96490.75;5050865;28;20240;-82
2024/03/31 03:18:36;;;;;;;7.90;3.63;;;;;;;11.36;57.08;96499.22;5050198;28;20684;-82
2024/03/31 03:21:03;;;;;;;6.23;2.70;;;;;;;11.37;56.97;96509.56;5051094;28;20205;-82
2024/03/31 03:23:29;;;;;;;9.87;3.20;;;;;;;11.16;57.51;96497.69;5050694;28;20723;-82
2024/03/31 03:25:57;;;;;;;7.87;3.03;;;;;;;10.73;58.19;96458.69;5050399;28;20202;-82
2024/03/31 03:28:23;;;;;;;12.37;4.57;;;;;;;10.99;58.08;96496.34;5050399;28;20201;-81
2024/03/31 03:30:50;;;;;;;9.83;3.97;;;;;;;11.10;57.88;96493.53;5050522;28;20196;-82
2024/03/31 03:33:17;;;;;;;5.53;2.33;;;;;;;11.24;57.84;96499.69;5050635;28;20572;-82
2024/03/31 03:35:43;;;;;;;6.97;2.87;;;;;;;11.41;56.96;96501.78;5050890;28;20205;-82
2024/03/31 03:38:10;;;;;;;8.27;3.27;;;;;;;11.20;57.43;96498.69;5050878;28;20679;-82
2024/03/31 03:40:37;;;;;;;8.13;2.83;;;;;;;11.05;57.85;96506.94;5054439;28;20702;-81
2024/03/31 03:43:04;;;;;;;9.83;3.30;;;;;;;11.16;57.61;96503.03;5046188;28;20195;-81
2024/03/31 03:45:31;;;;;;;5.17;2.77;;;;;;;11.21;57.23;96509.03;5036768;28;20288;-81
2024/03/31 03:47:57;;;;;;;9.93;3.70;;;;;;;10.94;57.35;96488.44;5054340;28;20201;-78
2024/03/31 03:50:24;;;;;;;9.57;2.83;;;;;;;10.91;58.29;96509.53;5053203;28;20198;-78
2024/03/31 03:52:50;;;;;;;10.53;3.10;;;;;;;10.74;58.73;96507.38;5054373;28;20194;-78
2024/03/31 03:55:16;;;;;;;7.00;2.97;;;;;;;10.81;58.66;96507.03;5053832;28;20251;-79
2024/03/31 03:57:42;;;;;;;11.87;2.80;;;;;;;10.41;58.68;96458.59;5053791;28;20208;-78
2024/03/31 04:00:12;;;;;;;12.43;3.40;;;;;;;10.73;59.44;96513.78;5054784;28;20221;-79
2024/03/31 04:02:37;;;;;;;7.73;3.90;;;;;;;10.88;59.25;96524.22;5053921;28;20198;-78
2024/03/31 04:05:05;;;;;;;10.30;3.10;;;;;;;11.25;58.10;96527.91;5053085;28;20230;-78
2024/03/31 04:07:30;;;;;;;3.77;2.43;;;;;;;11.14;58.86;96531.81;5040282;28;20253;-78
2024/03/31 04:09:57;;;;;;;11.17;2.97;;;;;;;11.33;57.92;96521.91;5033879;28;20202;-78
2024/03/31 04:12:23;;;;;;;7.03;3.40;;;;;;;11.24;57.82;96527.13;5044049;28;20201;-78
2024/03/31 04:14:50;;;;;;;9.73;3.57;;;;;;;11.35;57.39;96530.41;5053837;28;20673;-77
2024/03/31 04:17:18;;;;;;;5.87;3.03;;;;;;;11.29;57.80;96526.25;5053408;28;20194;-78
2024/03/31 04:19:45;;;;;;;5.83;2.43;;;;;;;11.11;58.43;96527.88;5054411;28;20202;-78
2024/03/31 04:22:11;;;;;;;9.70;3.27;;;;;;;11.15;58.55;96536.03;5053865;28;20276;-78
2024/03/31 04:24:38;;;;;;;5.50;2.30;;;;;;;11.16;57.68;96527.78;5053049;28;20692;-78
2024/03/31 04:27:04;;;;;;;8.60;2.53;;;;;;;11.07;58.57;96521.50;5054199;28;20194;-78
2024/03/31 04:29:31;;;;;;;6.93;2.80;;;;;;;11.12;58.52;96534.78;5053483;28;20229;-78
2024/03/31 04:31:57;;;;;;;11.23;3.40;;;;;;;11.25;58.25;96538.56;5053484;28;20240;-77
2024/03/31 04:34:28;;;;;;;11.33;3.60;;;;;;;11.32;57.49;96538.97;5053446;28;20198;-77
2024/03/31 04:36:54;;;;;;;14.63;3.00;;;;;;;11.31;56.98;96532.09;5052400;28;20205;-79
2024/03/31 04:39:21;;;;;;;10.10;3.57;;;;;;;11.35;57.16;96526.97;5052452;28;20225;-79
2024/03/31 04:41:47;;;;;;;4.10;2.60;;;;;;;11.61;57.08;96543.28;5037021;28;20194;-78
2024/03/31 04:44:14;;;;;;;9.90;3.50;;;;;;;11.67;57.14;96536.81;5036293;28;20227;-78
2024/03/31 04:46:40;;;;;;;5.23;2.70;;;;;;;11.46;56.69;96537.16;5042143;28;20198;-81
2024/03/31 04:49:07;;;;;;;6.50;3.10;;;;;;;11.08;58.68;96533.00;5045876;28;20225;-81
2024/03/31 04:51:34;;;;;;;10.50;4.03;;;;;;;11.04;59.15;96535.44;5051875;28;20210;-81
2024/03/31 04:54:01;;;;;;;10.97;4.23;;;;;;;11.15;59.01;96552.84;5045795;28;20264;-80
2024/03/31 04:56:27;;;;;;;9.53;4.37;;;;;;;11.29;58.33;96544.09;5052617;28;20201;-81
2024/03/31 04:58:53;;;;;;;10.70;3.37;;;;;;;11.27;58.17;96547.84;5052806;28;20224;-81
2024/03/31 05:01:19;;;;;;;7.53;3.03;;;;;;;11.02;58.39;96557.00;5052360;28;20679;-81
2024/03/31 05:03:46;;;;;;;5.97;3.27;;;;;;;11.24;58.29;96556.44;5052486;28;20213;-81
2024/03/31 05:06:12;;;;;;;7.43;2.77;;;;;;;11.54;57.97;96551.69;5052401;28;20194;-81
2024/03/31 05:08:40;;;;;;;6.97;3.40;;;;;;;11.65;57.83;96561.06;5052457;28;20545;-81
2024/03/31 05:11:06;;;;;;;13.17;5.90;;;;;;;11.67;57.83;96545.59;5052494;28;20225;-80
2024/03/31 05:13:33;;;;;;;12.20;5.87;;;;;;;11.81;58.45;96553.63;5053016;28;20201;-81
2024/03/31 05:15:59;;;;;;;16.77;6.17;;;;;;;11.91;58.61;96561.44;5051554;28;20665;-81
2024/03/31 05:18:26;;;;;;;6.53;4.40;;;;;;;11.92;58.81;96559.56;5052285;28;20194;-81
2024/03/31 05:20:59;;;;;;;7.97;3.90;;;;;;;11.67;59.42;96555.47;5037426;28;20213;-80
2024/03/31 05:23:26;;;;;;;9.67;3.70;;;;;;;12.03;59.09;96562.84;5032469;28;20198;-78
2024/03/31 05:25:55;;;;;;;9.87;3.83;;;;;;;12.21;58.14;96560.09;5037772;28;20221;-78
2024/03/31 05:28:22;;;;;;;10.47;5.37;;;;;;;12.23;58.40;96565.13;5051962;28;20197;-77
2024/03/31 05:30:48;;;;;;;11.43;6.40;;;;;;;12.27;57.83;96568.78;5052015;28;20268;-77
2024/03/31 05:33:15;;;;;;;13.93;7.60;;;;;;;12.42;56.76;96571.13;5052182;28;20193;-78
2024/03/31 05:35:42;;;;;;;7.43;4.13;;;;;;;12.34;56.42;96563.03;5051547;28;20595;-79
2024/03/31 05:38:09;;;;;;;9.57;5.07;;;;;;;12.63;55.94;96570.75;5052498;28;20197;-77
2024/03/31 05:40:36;;;;;;;5.07;3.80;;;;;;;12.83;55.25;96570.28;5052376;28;20197;-77
2024/03/31 05:43:05;;;;;;;7.33;3.37;;;;;;;12.77;55.64;96565.34;5047766;28;20396;-78
2024/03/31 05:45:31;;;;;;;4.30;2.97;;;;;;;12.23;55.74;96479.72;5048868;28;20228;-76
2024/03/31 05:47:58;;;;;;;10.10;3.03;;;;;;;12.89;55.78;96571.78;5051975;28;20190;-77
2024/03/31 05:50:24;;;;;;;44.50;25.90;;;;;;;13.12;55.34;96571.78;5032616;28;20687;-77
2024/03/31 05:52:51;;;;;;;16.83;9.67;;;;;;;13.27;55.91;96570.69;5032260;28;20198;-77
2024/03/31 05:55:16;;;;;;;11.20;4.73;;;;;;;13.58;56.53;96576.09;5032044;28;20199;-78
2024/03/31 05:57:43;;;;;;;7.47;3.77;;;;;;;13.66;55.52;96572.66;5051605;28;20225;-77
2024/03/31 06:00:12;;;;;;;7.00;3.87;;;;;;;13.83;54.54;96575.47;5052252;28;20304;-77
2024/03/31 06:02:39;;;;;;;10.07;4.43;;;;;;;14.04;53.32;96578.38;5051277;28;20200;-77
2024/03/31 06:05:05;;;;;;;13.40;6.13;;;;;;;14.19;53.12;96582.53;5051881;28;20226;-76
2024/03/31 06:07:32;;;;;;;13.30;4.10;;;;;;;14.38;54.80;96587.66;5051433;28;20206;-77
2024/03/31 06:09:58;;;;;;;9.97;3.70;;;;;;;14.47;53.37;96587.69;5052466;28;20202;-77
2024/03/31 06:12:26;;;;;;;11.63;3.60;;;;;;;14.53;53.41;96573.88;5051273;28;20202;-77
2024/03/31 06:14:52;;;;;;;9.23;3.37;;;;;;;14.76;51.54;96587.16;5051302;28;20206;-77
2024/03/31 06:17:21;;;;;;;7.60;3.87;;;;;;;14.83;50.77;96599.00;5051596;28;20200;-76
2024/03/31 06:19:46;;;;;;;7.80;3.23;;;;;;;14.66;51.18;96574.84;5050982;28;20202;-77
2024/03/31 06:22:13;;;;;;;9.63;3.47;;;;;;;15.10;50.62;96599.78;5050730;28;20199;-83
2024/03/31 06:24:40;;;;;;;15.03;3.77;;;;;;;15.19;49.74;96597.13;5038531;28;20228;-77
2024/03/31 06:27:07;;;;;;;7.07;3.30;;;;;;;15.23;49.76;96600.75;5031144;28;20247;-77
2024/03/31 06:29:32;;;;;;;12.30;3.80;;;;;;;15.44;49.64;96600.91;5046085;28;20204;-80
2024/03/31 06:32:00;;;;;;;11.07;4.13;;;;;;;15.70;49.45;96608.97;5041149;28;20577;-80
2024/03/31 06:34:27;;;;;;;11.87;3.70;;;;;;;15.87;48.62;96601.69;5044842;28;20215;-80
2024/03/31 06:36:54;;;;;;;9.00;3.60;;;;;;;16.00;48.07;96605.28;5032915;28;20213;-80
2024/03/31 06:39:19;;;;;;;11.40;4.20;;;;;;;16.27;47.90;96608.66;5051182;28;20653;-80
2024/03/31 06:41:46;;;;;;;9.30;4.00;;;;;;;16.36;46.43;96583.34;5051348;28;20198;-79
2024/03/31 06:44:12;;;;;;;8.00;3.57;;;;;;;16.80;43.81;96615.38;5050904;28;20224;-80
2024/03/31 06:46:39;;;;;;;9.10;3.53;;;;;;;17.02;43.53;96617.00;5049122;28;20205;-80
2024/03/31 06:49:05;;;;;;;6.30;3.43;;;;;;;17.05;42.14;96603.69;5031539;28;20198;-80
2024/03/31 06:51:36;;;;;;;9.73;4.53;;;;;;;17.35;41.37;96606.31;5042067;28;20194;-81
2024/03/31 06:54:02;;;;;;;13.73;3.77;;;;;;;17.55;41.14;96597.44;5038967;28;20194;-81
2024/03/31 06:56:29;;;;;;;9.07;3.83;;;;;;;17.80;42.06;96584.88;5046929;28;20197;-80
2024/03/31 06:58:55;;;;;;;9.17;3.77;;;;;;;18.09;41.03;96602.00;5051238;28;20220;-81
2024/03/31 07:01:22;;;;;;;8.60;3.73;;;;;;;18.26;40.30;96593.72;5047414;28;20190;-80
2024/03/31 07:03:47;;;;;;;5.70;3.23;;;;;;;18.47;40.48;96600.91;5037398;28;20554;-80
2024/03/31 07:06:16;;;;;;;8.47;3.33;;;;;;;18.23;38.62;96547.78;5033752;28;20277;-80
2024/03/31 07:08:44;;;;;;;7.83;3.03;;;;;;;18.82;37.90;96601.28;5031211;28;20571;-80
2024/03/31 07:11:11;;;;;;;6.10;2.67;;;;;;;18.74;38.37;96600.28;5035356;28;20202;-81
2024/03/31 07:13:36;;;;;;;8.00;3.37;;;;;;;19.06;38.30;96601.25;5050726;28;20683;-80
2024/03/31 07:16:03;;;;;;;9.47;3.27;;;;;;;19.10;37.21;96571.66;5036620;28;20289;-80
2024/03/31 07:18:29;;;;;;;6.60;3.83;;;;;;;19.61;36.87;96601.63;5050459;28;20657;-80
2024/03/31 07:20:56;;;;;;;5.67;2.67;;;;;;;19.71;35.83;96593.09;5051811;28;20212;-80
2024/03/31 07:23:22;;;;;;;4.93;2.33;;;;;;;19.70;36.01;96605.00;5051345;28;20194;-80
2024/03/31 07:25:50;;;;;;;7.23;4.90;;;;;;;19.92;35.96;96603.66;5051592;28;20304;-80
2024/03/31 07:28:16;;;;;;;9.17;6.73;;;;;;;20.23;34.34;96605.63;5050240;28;20198;-80
2024/03/31 07:30:43;;;;;;;10.53;4.37;;;;;;;20.46;35.50;96599.59;5050162;28;20690;-81
2024/03/31 07:33:08;;;;;;;13.07;6.97;;;;;;;20.86;34.39;96601.31;5049658;28;20198;-82
2024/03/31 07:35:37;;;;;;;13.03;7.90;;;;;;;21.19;34.60;96598.97;5036502;28;20200;-80
2024/03/31 07:38:03;;;;;;;8.20;3.77;;;;;;;21.19;34.07;96596.28;5050537;28;20198;-80
2024/03/31 07:40:31;;;;;;;11.20;3.23;;;;;;;21.30;32.74;96593.00;5050128;28;20198;-80
2024/03/31 07:42:59;;;;;;;5.97;3.57;;;;;;;21.68;33.51;96587.63;5049701;28;20201;-80
2024/03/31 07:45:25;;;;;;;9.23;5.57;;;;;;;21.60;31.99;96595.94;5049032;28;20214;-79
2024/03/31 07:47:51;;;;;;;11.57;8.60;;;;;;;21.97;32.68;96601.69;5049676;28;20217;-80
2024/03/31 07:50:18;;;;;;;8.73;3.37;;;;;;;22.38;31.99;96600.13;5031836;28;20273;-80
2024/03/31 07:52:44;;;;;;;9.33;3.47;;;;;;;22.40;31.14;96607.88;5030091;28;20211;-80
2024/03/31 07:55:11;;;;;;;11.90;3.30;;;;;;;22.04;32.08;96607.25;5029653;28;20202;-80
2024/03/31 07:57:37;;;;;;;43.90;26.90;;;;;;;22.43;31.82;96602.53;5030143;28;20203;-80
2024/03/31 08:00:07;;;;;;;14.50;5.13;;;;;;;22.35;30.42;96578.38;5030423;28;20228;-80
2024/03/31 08:02:32;;;;;;;82.77;49.27;;;;;;;23.00;30.20;96605.38;5042269;28;20237;-80
2024/03/31 08:04:59;;;;;;;24.90;11.40;;;;;;;23.44;29.32;96599.34;5049874;28;20253;-80
2024/03/31 08:07:25;;;;;;;16.37;6.93;;;;;;;23.46;28.87;96599.72;5036320;28;20206;-80
2024/03/31 08:09:52;;;;;;;6.33;3.57;;;;;;;22.67;30.65;96606.00;5030651;28;20577;-80
2024/03/31 08:12:18;;;;;;;11.17;4.07;;;;;;;23.08;30.81;96604.31;5044151;28;20209;-80
2024/03/31 08:14:48;;;;;;;11.30;4.80;;;;;;;22.86;31.56;96596.97;5049891;28;20197;-80
2024/03/31 08:17:15;;;;;;;16.17;4.10;;;;;;;23.34;30.86;96598.03;5050298;28;20280;-80
2024/03/31 08:19:42;;;;;;;13.90;4.00;;;;;;;23.01;30.97;96601.50;5050243;28;20217;-81
2024/03/31 08:22:08;;;;;;;9.83;3.67;;;;;;;23.27;31.05;96610.75;5049821;28;20260;-80
2024/03/31 08:24:35;;;;;;;12.07;3.67;;;;;;;23.47;30.79;96614.13;5049592;28;20638;-80
2024/03/31 08:27:01;;;;;;;12.83;2.97;;;;;;;23.56;29.70;96609.97;5053468;28;20206;-80
2024/03/31 08:29:27;;;;;;;11.13;3.27;;;;;;;23.08;30.32;96600.81;5053382;28;20225;-79
2024/03/31 08:31:53;;;;;;;8.40;3.17;;;;;;;23.24;30.46;96603.34;5053297;28;20202;-80
2024/03/31 08:34:21;;;;;;;10.27;2.93;;;;;;;22.99;31.49;96606.50;5053147;28;20221;-79
2024/03/31 08:36:47;;;;;;;6.90;3.57;;;;;;;23.29;30.94;96605.75;5053532;28;20205;-80
2024/03/31 08:39:14;;;;;;;9.13;3.40;;;;;;;23.57;30.78;96605.31;5053283;28;20724;-80
2024/03/31 08:41:46;;;;;;;8.27;3.90;;;;;;;23.41;31.07;96610.94;5053387;28;20213;-80
2024/03/31 08:44:16;;;;;;;9.40;3.57;;;;;;;23.49;30.97;96612.59;5043109;28;20199;-80
2024/03/31 08:46:42;;;;;;;13.67;4.83;;;;;;;23.55;31.66;96611.13;5050833;28;20240;-80
2024/03/31 08:49:10;;;;;;;12.13;3.97;;;;;;;23.66;30.69;96593.03;5053212;28;20190;-80
2024/03/31 08:51:38;;;;;;;7.33;3.13;;;;;;;23.96;31.35;96603.03;5052701;28;20198;-79
2024/03/31 08:54:05;;;;;;;11.33;3.57;;;;;;;23.79;30.91;96601.72;5052836;28;20625;-79
2024/03/31 08:56:31;;;;;;;14.43;4.30;;;;;;;24.19;30.31;96588.50;5052897;28;20657;-79
2024/03/31 08:59:00;;;;;;;13.70;3.50;;;;;;;23.72;31.31;96576.41;5052533;28;20226;-79
2024/03/31 09:01:27;;;;;;;11.57;5.37;;;;;;;24.17;31.53;96597.84;5052956;28;20229;-79
2024/03/31 09:03:54;;;;;;;6.40;3.20;;;;;;;24.37;28.67;96597.63;5052913;28;20284;-80
2024/03/31 09:06:20;;;;;;;8.40;3.40;;;;;;;24.86;29.69;96607.38;5047687;28;20218;-80
2024/03/31 09:08:55;;;;;;;11.23;4.27;;;;;;;24.29;30.73;96593.28;5044814;28;20193;-80
2024/03/31 09:11:21;;;;;;;9.77;3.53;;;;;;;24.71;31.16;96594.81;5052792;28;20201;-79
2024/03/31 09:13:48;;;;;;;13.30;3.30;;;;;;;24.62;30.37;96595.91;5052829;28;20198;-80
2024/03/31 09:16:14;;;;;;;9.27;3.37;;;;;;;24.92;30.23;96596.88;5052510;28;20205;-80
2024/03/31 09:18:40;;;;;;;8.37;4.33;;;;;;;24.99;30.88;96600.44;5052931;28;20209;-79
2024/03/31 09:21:08;;;;;;;9.10;3.63;;;;;;;25.02;29.88;96596.19;5052803;28;20202;-80
2024/03/31 09:23:37;;;;;;;7.30;3.23;;;;;;;25.17;30.31;96597.88;5038907;28;20224;-79
2024/03/31 09:26:04;;;;;;;8.40;3.50;;;;;;;25.18;30.56;96588.53;5032839;28;20292;-79
2024/03/31 09:28:32;;;;;;;8.53;3.20;;;;;;;25.20;29.51;96596.31;5032786;28;20285;-79
2024/03/31 09:30:57;;;;;;;8.67;3.17;;;;;;;24.77;29.80;96591.34;5040298;28;20194;-80
2024/03/31 09:33:24;;;;;;;8.03;3.80;;;;;;;24.42;31.20;96596.53;5052263;28;20206;-80
2024/03/31 09:35:50;;;;;;;8.50;2.50;;;;;;;25.06;30.38;96603.22;5043862;28;20202;-79
2024/03/31 09:38:19;;;;;;;10.83;3.83;;;;;;;25.07;29.08;96590.38;5032801;28;20206;-80
2024/03/31 09:40:46;;;;;;;10.63;3.30;;;;;;;25.03;29.58;96593.06;5032269;28;20191;-81
2024/03/31 09:43:14;;;;;;;6.87;3.37;;;;;;;25.36;29.40;96591.31;5032262;28;20205;-79
2024/03/31 09:45:42;;;;;;;5.43;2.97;;;;;;;25.46;29.26;96598.75;5040851;28;20226;-79
2024/03/31 09:48:16;;;;;;;9.57;4.27;;;;;;;25.52;29.97;96597.25;5051864;28;20221;-80
2024/03/31 09:50:46;;;;;;;14.38;3.50;;;;;;;25.52;29.56;96593.75;5052280;28;20716;-79
2024/03/31 09:53:19;;;;;;;9.37;3.23;;;;;;;25.03;30.61;96575.97;5052087;28;20201;-80
2024/03/31 09:55:47;;;;;;;11.47;3.40;;;;;;;25.06;29.47;96586.09;5051653;28;20198;-79
2024/03/31 09:58:18;;;;;;;8.23;3.40;;;;;;;25.23;28.96;96582.69;5051793;28;20202;-80
2024/03/31 10:00:45;;;;;;;7.37;3.70;;;;;;;25.56;28.94;96598.03;5051734;28;20197;-79
2024/03/31 10:03:17;;;;;;;7.77;3.37;;;;;;;25.69;29.51;96589.50;5052235;28;20576;-79
2024/03/31 10:05:44;;;;;;;9.97;3.03;;;;;;;25.38;29.18;96584.31;5051898;28;20218;-79
2024/03/31 10:08:13;;;;;;;8.77;2.40;;;;;;;25.29;28.34;96553.94;5038097;28;20210;-80
2024/03/31 10:10:39;;;;;;;9.93;3.60;;;;;;;25.56;28.22;96592.59;5051500;28;20233;-79
2024/03/31 10:13:08;;;;;;;8.70;4.15;;;;;;;25.55;29.41;96592.94;5051234;28;20664;-79
2024/03/31 10:15:36;;;;;;;5.23;2.80;;;;;;;25.71;28.89;96579.00;5051175;28;20576;-80
2024/03/31 10:18:05;;;;;;;7.93;3.47;;;;;;;25.91;28.28;96579.47;5051494;28;20265;-80
2024/03/31 10:20:35;;;;;;;5.30;3.00;;;;;;;26.18;28.70;96566.28;5037673;28;20264;-79
2024/03/31 10:23:02;;;;;;;8.27;3.20;;;;;;;26.00;27.90;96568.97;5051400;28;20576;-79
2024/03/31 10:25:29;;;;;;;16.40;4.18;;;;;;;26.35;28.90;96573.69;5050752;28;20221;-80
2024/03/31 10:27:57;;;;;;;10.35;3.65;;;;;;;26.08;28.24;96574.03;5051485;28;20201;-79
2024/03/31 10:30:24;;;;;;;6.18;3.08;;;;;;;25.47;27.99;96566.84;5051026;28;20194;-80
2024/03/31 10:32:53;;;;;;;6.90;3.47;;;;;;;25.59;29.01;96577.38;5042368;28;20199;-80
2024/03/31 10:35:20;;;;;;;9.07;3.72;;;;;;;25.74;28.85;96553.69;5047181;28;20212;-80
2024/03/31 10:37:47;;;;;;;7.68;2.97;;;;;;;25.89;28.46;96568.94;5051192;28;20205;-79
2024/03/31 10:40:14;;;;;;;7.97;3.45;;;;;;;25.67;29.37;96572.75;5051012;28;20432;-79
2024/03/31 10:42:42;;;;;;;10.75;4.85;;;;;;;25.59;29.52;96564.56;5051122;28;20229;-79
2024/03/31 10:45:09;;;;;;;9.68;3.83;;;;;;;25.17;28.94;96551.56;5050470;28;20198;-79
2024/03/31 10:47:36;;;;;;;7.30;3.60;;;;;;;25.42;27.46;96562.53;5050523;28;20292;-80
2024/03/31 10:50:05;;;;;;;5.93;3.23;;;;;;;25.77;27.29;96555.66;5033444;28;20218;-79
2024/03/31 10:52:37;;;;;;;8.60;3.17;;;;;;;25.84;26.61;96558.41;5031029;28;20576;-80
2024/03/31 10:55:06;;;;;;;9.23;2.80;;;;;;;25.57;26.71;96539.63;5049995;28;20201;-79
2024/03/31 10:57:38;;;;;;;8.13;2.47;;;;;;;25.31;25.99;96559.78;5051015;28;20206;-79
2024/03/31 11:00:06;;;;;;;7.27;3.30;;;;;;;24.82;26.75;96486.75;5048018;28;20237;-79
2024/03/31 11:02:34;;;;;;;9.07;3.20;;;;;;;25.02;27.91;96567.00;5050107;28;20197;-80
2024/03/31 11:05:03;;;;;;;4.77;2.37;;;;;;;25.13;26.86;96551.53;5050844;28;20194;-79
2024/03/31 11:07:31;;;;;;;6.90;3.07;;;;;;;25.91;26.76;96555.72;5050451;28;20285;-80
2024/03/31 11:09:58;;;;;;;6.93;2.60;;;;;;;25.76;26.27;96552.16;5050310;28;20245;-80
2024/03/31 11:12:25;;;;;;;11.63;3.13;;;;;;;25.52;25.98;96567.25;5050631;28;20787;-80
2024/03/31 11:14:51;;;;;;;9.70;2.30;;;;;;;25.54;26.35;96554.03;5050768;28;20202;-80
2024/03/31 11:17:18;;;;;;;9.95;2.72;;;;;;;25.63;25.65;96531.84;5051003;28;20229;-80
2024/03/31 11:19:45;;;;;;;8.38;3.35;;;;;;;26.23;25.89;96535.88;5050588;28;20198;-80
2024/03/31 11:22:14;;;;;;;5.60;2.95;;;;;;;26.12;26.21;96540.53;5050385;28;20202;-80
2024/03/31 11:24:41;;;;;;;6.82;4.07;;;;;;;26.15;28.05;96512.47;5050825;28;20220;-80
2024/03/31 11:27:08;;;;;;;5.70;3.70;;;;;;;26.45;25.81;96534.72;5050366;28;20228;-80
2024/03/31 11:29:35;;;;;;;9.45;2.75;;;;;;;25.97;25.81;96539.72;5050034;28;20660;-79